Aviation Discussion


.AVIATION /14Z SUNDAY THROUGH THURSDAY/...
VFR CONDITIONS XPCD TDA THRU MON MRNG. HIGH PRESSURE WILL BRING
CLEAR SKIES BEFORE HIGH CLOUDS INCREASE OVER THE AREA LATER
TONIGHT - JUST AHEAD OF ANOTHER STORM SYSTEM. THE FRONTAL SYSTEM
LOOKS RELATIVELY WEAK FOR TUE AFTN/EVE...THOUGH A FEW TSTMS ACROSS
STILL POSSIBLE FOR SCATTERED AREAS OF THE MID ATLC REGION. THE
FRONTAL SYSTEM WILL THEN WORK ITS WAY OFF THE COAST INTO THE LATE
NIGHT HRS. HIGH PRESSURE AND SOME GUSTY NW WINDS ON WED - QUIETING
DOWN OUR WX FOR THU BRIEFLY BEFORE A FRONTAL BOUNDARY SWEEPS THRU
THE AREA ON FRI.

 

Terminal Aviation Forecasts

TAFBWI (View previous versions )
KBWI 201732Z 2018/2124 07009KT P6SM FEW250
     FM210200 07005KT P6SM FEW250
     FM210500 00000KT P6SM FEW250
     FM212200 14004KT P6SM BKN250=

TAFCHO (View previous versions )
KCHO 201732Z 2018/2118 06006KT P6SM SCT250
     FM210300 00000KT P6SM FEW250=

TAFDCA (View previous versions )
KDCA 201732Z 2018/2118 06010KT P6SM FEW250
     FM210400 07005KT P6SM FEW250=

TAFIAD (View previous versions )
KIAD 201732Z 2018/2124 07010KT P6SM FEW250
     FM210100 06006KT P6SM FEW250
     FM210500 00000KT P6SM FEW250
     FM211800 00000KT P6SM BKN250
     FM212200 14004KT P6SM BKN250=

TAFMRB (View previous versions )
KMRB 201732Z 2018/2118 11007KT P6SM FEW250
     FM202300 VRB03KT P6SM FEW250=

TAFMTN (View previous versions )
KMTN 201732Z 2018/2118 09010KT P6SM FEW250
     FM202300 08006KT P6SM FEW250
     FM210400 00000KT P6SM FEW250=


Meteorological Impact Statement

  

Surface Map


TRACON Thunderstorm Forecast


Vertical Wind Profiles